createdAt,value
2017-09-19T00:01:13.225Z,9.90
2017-09-19T00:03:39.584Z,9.90
2017-09-19T00:06:05.884Z,9.90
2017-09-19T00:08:32.960Z,9.90
2017-09-19T00:10:59.291Z,9.80
2017-09-19T00:13:25.619Z,9.90
2017-09-19T00:15:51.969Z,10.00
2017-09-19T00:18:18.285Z,10.20
2017-09-19T00:20:44.583Z,10.30
2017-09-19T00:23:11.656Z,10.30
2017-09-19T00:25:37.943Z,10.30
2017-09-19T00:28:04.276Z,10.30
2017-09-19T00:30:31.368Z,10.40
2017-09-19T00:32:57.671Z,10.40
2017-09-19T00:35:24.741Z,10.30
2017-09-19T00:37:51.024Z,10.30
2017-09-19T00:40:17.341Z,10.30
2017-09-19T00:42:43.704Z,10.30
2017-09-19T00:45:10.764Z,10.30
2017-09-19T00:47:37.095Z,10.30
2017-09-19T00:50:04.120Z,10.20
2017-09-19T00:52:30.471Z,10.20
2017-09-19T00:54:57.544Z,10.10
2017-09-19T00:57:23.840Z,10.10
2017-09-19T00:59:50.931Z,9.90
2017-09-19T01:02:17.276Z,9.90
2017-09-19T01:04:43.647Z,9.80
2017-09-19T01:07:10.671Z,9.50
2017-09-19T01:09:37.061Z,9.40
2017-09-19T01:12:03.328Z,9.30
2017-09-19T01:14:29.672Z,9.20
2017-09-19T01:16:56.034Z,9.10
2017-09-19T01:19:23.155Z,8.90
2017-09-19T01:21:49.472Z,8.90
2017-09-19T01:24:15.814Z,8.80
2017-09-19T01:26:42.364Z,8.80
2017-09-19T01:29:09.427Z,8.70
2017-09-19T01:31:36.612Z,8.70
2017-09-19T01:34:02.973Z,8.60
2017-09-19T01:36:29.289Z,8.60
2017-09-19T01:38:55.572Z,8.60
2017-09-19T01:41:21.920Z,8.60
2017-09-19T01:43:48.235Z,8.50
2017-09-19T01:46:14.544Z,8.50
2017-09-19T01:48:41.592Z,8.40
2017-09-19T01:51:08.631Z,8.40
2017-09-19T01:53:34.928Z,8.40
2017-09-19T01:56:01.257Z,8.40
2017-09-19T01:58:34.611Z,8.30
2017-09-19T02:01:00.920Z,8.30
2017-09-19T02:03:27.940Z,8.40
2017-09-19T02:05:54.306Z,8.40
2017-09-19T02:08:21.380Z,8.60
2017-09-19T02:10:47.708Z,8.50
2017-09-19T02:13:14.084Z,8.50
2017-09-19T02:15:40.649Z,8.40
2017-09-19T02:18:07.672Z,8.40
2017-09-19T02:20:34.027Z,8.30
2017-09-19T02:23:01.045Z,8.40
2017-09-19T02:25:27.442Z,8.40
2017-09-19T02:27:53.802Z,8.40
2017-09-19T02:30:20.188Z,8.40
2017-09-19T02:32:46.560Z,8.50
2017-09-19T02:35:14.591Z,8.80
2017-09-19T02:37:40.891Z,8.70
2017-09-19T02:40:08.415Z,9.00
2017-09-19T02:42:35.453Z,9.10
2017-09-19T02:45:01.717Z,9.00
2017-09-19T02:47:28.036Z,9.10
2017-09-19T02:49:54.341Z,9.20
2017-09-19T02:52:20.716Z,9.30
2017-09-19T02:54:47.744Z,9.40
2017-09-19T02:57:14.084Z,9.40
2017-09-19T02:59:40.451Z,9.50
2017-09-19T03:02:06.800Z,9.50
2017-09-19T03:04:33.124Z,9.50
2017-09-19T03:06:59.651Z,9.40
2017-09-19T03:09:25.980Z,9.30
2017-09-19T03:11:52.257Z,9.20
2017-09-19T03:14:19.367Z,9.20
2017-09-19T03:16:45.684Z,9.20
2017-09-19T03:19:12.024Z,9.10
2017-09-19T03:21:38.408Z,9.10
2017-09-19T03:24:04.687Z,9.10
2017-09-19T03:26:31.084Z,9.10
2017-09-19T03:28:58.188Z,9.50
2017-09-19T03:31:24.645Z,9.40
2017-09-19T03:33:50.972Z,9.60
2017-09-19T03:36:17.304Z,9.60
2017-09-19T03:38:43.595Z,9.60
2017-09-19T03:41:09.905Z,9.70
2017-09-19T03:43:36.204Z,9.70
2017-09-19T03:46:02.524Z,9.70
2017-09-19T03:48:28.808Z,9.70
2017-09-19T03:50:55.145Z,9.70
2017-09-19T03:53:21.519Z,9.80
2017-09-19T03:55:47.822Z,9.90
2017-09-19T03:58:14.190Z,10.00
2017-09-19T04:00:40.667Z,10.00
2017-09-19T04:03:06.961Z,10.00
2017-09-19T04:05:33.995Z,10.00
2017-09-19T04:08:00.332Z,10.00
2017-09-19T04:10:26.683Z,10.00
2017-09-19T04:12:53.720Z,10.00
2017-09-19T04:15:20.064Z,10.00
2017-09-19T04:17:46.448Z,10.00
2017-09-19T04:20:12.756Z,10.00
2017-09-19T04:22:39.064Z,9.90
2017-09-19T04:25:05.418Z,9.80
2017-09-19T04:27:31.737Z,9.60
2017-09-19T04:29:58.153Z,9.60
2017-09-19T04:32:24.477Z,9.50
2017-09-19T04:34:51.496Z,9.30
2017-09-19T04:37:17.799Z,9.30
2017-09-19T04:39:44.139Z,9.20
2017-09-19T04:42:10.608Z,9.20
2017-09-19T04:44:36.940Z,9.10
2017-09-19T04:47:04.000Z,9.20
2017-09-19T04:49:30.361Z,9.20
2017-09-19T04:51:56.700Z,9.30
2017-09-19T04:54:23.037Z,9.40
2017-09-19T04:56:49.368Z,9.40
2017-09-19T04:59:15.669Z,9.50
2017-09-19T05:01:42.011Z,9.70
2017-09-19T05:04:08.402Z,9.70
2017-09-19T05:06:35.442Z,9.90
2017-09-19T05:09:02.539Z,10.00
2017-09-19T05:11:28.824Z,10.00
2017-09-19T05:13:55.861Z,10.00
2017-09-19T05:16:22.149Z,10.00
2017-09-19T05:18:48.432Z,10.10
2017-09-19T05:21:15.528Z,10.30
2017-09-19T05:23:41.811Z,10.30
2017-09-19T05:26:08.893Z,10.50
2017-09-19T05:28:35.176Z,10.50
2017-09-19T05:31:01.477Z,10.70
2017-09-19T05:33:27.944Z,10.70
2017-09-19T05:35:54.260Z,10.80
2017-09-19T05:38:21.409Z,11.20
2017-09-19T05:40:47.796Z,11.20
2017-09-19T05:43:14.089Z,11.40
2017-09-19T05:45:41.161Z,11.80
2017-09-19T05:48:07.516Z,11.80
2017-09-19T05:50:33.831Z,12.00
2017-09-19T05:53:00.340Z,12.20
2017-09-19T05:55:27.379Z,13.40
2017-09-19T05:57:53.681Z,13.40
2017-09-19T06:00:20.035Z,15.10
2017-09-19T06:02:46.344Z,16.70
2017-09-19T06:05:12.713Z,18.20
2017-09-19T06:07:38.996Z,19.60
2017-09-19T06:10:06.093Z,19.50
2017-09-19T06:12:32.532Z,19.50
2017-09-19T06:14:58.848Z,18.60
2017-09-19T06:17:25.975Z,16.70
2017-09-19T06:19:53.036Z,16.00
2017-09-19T06:22:20.075Z,15.50
2017-09-19T06:24:47.231Z,15.10
2017-09-19T06:27:14.333Z,14.80
2017-09-19T06:29:40.934Z,14.70
2017-09-19T06:32:07.280Z,14.50
2017-09-19T06:34:33.680Z,14.30
2017-09-19T06:37:00.764Z,14.00
2017-09-19T06:39:27.066Z,14.00
2017-09-19T06:41:54.132Z,13.80
2017-09-19T06:44:20.513Z,13.80
2017-09-19T06:46:47.756Z,13.80
2017-09-19T06:49:14.037Z,13.80
2017-09-19T06:51:40.392Z,13.70
2017-09-19T06:54:06.774Z,13.60
2017-09-19T06:56:33.808Z,13.60
2017-09-19T06:59:00.123Z,13.60
2017-09-19T07:01:26.421Z,13.60
2017-09-19T07:03:52.761Z,13.50
2017-09-19T07:06:19.086Z,13.60
2017-09-19T07:08:45.479Z,13.70
2017-09-19T07:11:12.680Z,13.90
2017-09-19T07:13:38.983Z,13.90
2017-09-19T07:16:05.379Z,14.00
2017-09-19T07:18:32.472Z,14.30
2017-09-19T07:20:58.843Z,14.20
2017-09-19T07:23:25.941Z,14.30
2017-09-19T07:25:52.271Z,14.40
2017-09-19T07:28:18.624Z,14.50
2017-09-19T07:30:44.974Z,14.70
2017-09-19T07:33:11.288Z,14.90
2017-09-19T07:35:37.597Z,15.20
2017-09-19T07:38:03.939Z,15.30
2017-09-19T07:40:30.237Z,15.70
2017-09-19T07:42:57.343Z,16.50
2017-09-19T07:45:23.624Z,16.50
2017-09-19T07:47:49.948Z,16.60
2017-09-19T07:50:17.501Z,16.50
2017-09-19T07:52:43.964Z,16.50
2017-09-19T07:55:10.389Z,16.50
2017-09-19T07:57:36.739Z,16.50
2017-09-19T08:00:03.067Z,16.50
2017-09-19T08:02:29.363Z,16.60
2017-09-19T08:04:56.439Z,16.80
2017-09-19T08:07:22.737Z,16.70
2017-09-19T08:09:56.829Z,17.00
2017-09-19T08:12:23.140Z,16.90
2017-09-19T08:14:49.457Z,17.10
2017-09-19T08:17:15.803Z,17.40
2017-09-19T08:19:42.120Z,17.70
2017-09-19T08:22:08.428Z,17.90
2017-09-19T08:24:34.729Z,17.90
2017-09-19T08:27:01.845Z,18.60
2017-09-19T08:29:28.168Z,18.60
2017-09-19T08:31:54.504Z,18.90
2017-09-19T08:34:20.822Z,19.00
2017-09-19T08:36:47.113Z,18.90
2017-09-19T08:39:13.438Z,18.60
2017-09-19T08:41:39.796Z,18.60
2017-09-19T08:44:06.107Z,18.70
2017-09-19T08:46:32.432Z,19.10
2017-09-19T08:48:58.744Z,19.80
2017-09-19T08:51:25.847Z,21.30
2017-09-19T08:53:52.213Z,21.30
2017-09-19T08:56:18.533Z,21.40
2017-09-19T08:58:44.837Z,21.50
2017-09-19T09:01:11.128Z,21.60
2017-09-19T09:03:38.288Z,22.10
2017-09-19T09:06:04.653Z,22.10
2017-09-19T09:08:31.035Z,22.40
2017-09-19T09:10:58.066Z,24.80
2017-09-19T09:13:25.156Z,26.90
2017-09-19T09:15:51.481Z,26.80
2017-09-19T09:18:17.828Z,28.50
2017-09-19T09:20:44.158Z,28.80
2017-09-19T09:23:10.562Z,29.10
2017-09-19T09:25:37.608Z,28.00
2017-09-19T09:28:03.904Z,28.00
2017-09-19T09:30:30.267Z,27.70
2017-09-19T09:32:57.313Z,27.00
2017-09-19T09:35:24.370Z,26.40
2017-09-19T09:37:50.688Z,26.40
2017-09-19T09:40:17.708Z,24.90
2017-09-19T09:42:44.039Z,24.80
2017-09-19T09:45:11.096Z,23.40
2017-09-19T09:47:38.167Z,22.80
2017-09-19T09:50:04.512Z,22.80
2017-09-19T09:52:30.830Z,22.50
2017-09-19T09:54:57.455Z,22.40
2017-09-19T09:57:24.610Z,22.30
2017-09-19T09:59:51.636Z,22.10
2017-09-19T10:02:18.124Z,22.00
2017-09-19T10:04:44.469Z,22.00
2017-09-19T10:07:10.857Z,22.00
2017-09-19T10:09:37.145Z,21.80
2017-09-19T10:12:04.245Z,21.50
2017-09-19T10:14:30.696Z,21.50
2017-09-19T10:16:56.988Z,21.30
2017-09-19T10:19:24.068Z,20.60
2017-09-19T10:21:50.432Z,20.50
2017-09-19T10:24:16.823Z,20.40
2017-09-19T10:26:43.172Z,20.30
2017-09-19T10:29:09.472Z,20.30
2017-09-19T10:31:36.131Z,20.30
2017-09-19T10:34:02.416Z,20.40
2017-09-19T10:36:29.452Z,20.50
2017-09-19T10:38:55.782Z,20.40
2017-09-19T10:41:22.096Z,20.50
2017-09-19T10:43:48.473Z,20.40
2017-09-19T10:46:14.780Z,20.20
2017-09-19T10:48:41.125Z,20.30
2017-09-19T10:51:08.165Z,20.60
2017-09-19T10:53:35.237Z,20.70
2017-09-19T10:56:01.527Z,20.70
2017-09-19T10:58:28.610Z,21.20
2017-09-19T11:00:55.689Z,21.20
2017-09-19T11:03:22.005Z,21.20
2017-09-19T11:05:49.165Z,21.40
2017-09-19T11:08:15.480Z,21.40
2017-09-19T11:10:41.886Z,21.60
2017-09-19T11:13:08.924Z,22.00
2017-09-19T11:15:35.984Z,22.10
2017-09-19T11:18:03.034Z,22.10
2017-09-19T11:20:30.071Z,22.20
2017-09-19T11:22:57.196Z,22.30
2017-09-19T11:25:23.490Z,22.30
2017-09-19T11:27:49.787Z,22.40
2017-09-19T11:30:16.901Z,22.90
2017-09-19T11:32:43.193Z,22.80
2017-09-19T11:35:09.505Z,23.20
2017-09-19T11:37:35.841Z,23.50
2017-09-19T11:40:02.310Z,23.40
2017-09-19T11:42:28.613Z,23.30
2017-09-19T11:44:54.930Z,23.00
2017-09-19T11:47:21.252Z,22.90
2017-09-19T11:49:48.331Z,21.90
2017-09-19T11:52:14.691Z,21.90
2017-09-19T11:54:41.790Z,21.30
2017-09-19T11:57:08.184Z,21.30
2017-09-19T11:59:34.501Z,21.10
2017-09-19T12:02:00.819Z,20.90
2017-09-19T12:04:27.136Z,20.80
2017-09-19T12:06:53.571Z,20.60
2017-09-19T12:09:19.892Z,20.60
2017-09-19T12:11:46.175Z,20.50
2017-09-19T12:14:12.637Z,20.40
2017-09-19T12:16:38.932Z,20.30
2017-09-19T12:19:05.304Z,20.10
2017-09-19T12:21:31.621Z,19.90
2017-09-19T12:23:57.971Z,19.80
2017-09-19T12:26:24.560Z,19.70
2017-09-19T12:28:51.649Z,19.50
2017-09-19T12:31:17.935Z,19.50
2017-09-19T12:33:45.887Z,19.50
2017-09-19T12:36:12.412Z,19.50
2017-09-19T12:38:38.771Z,19.30
2017-09-19T12:41:05.385Z,19.30
2017-09-19T12:43:31.727Z,19.40
2017-09-19T12:45:58.051Z,19.40
2017-09-19T12:48:24.377Z,19.30
2017-09-19T12:50:50.688Z,19.20
2017-09-19T12:53:17.018Z,19.10
2017-09-19T12:55:43.352Z,19.10
2017-09-19T12:58:09.636Z,19.00
2017-09-19T13:00:36.702Z,18.40
2017-09-19T13:03:03.033Z,18.40
2017-09-19T13:05:29.312Z,18.30
2017-09-19T13:07:55.607Z,18.20
2017-09-19T13:10:21.972Z,18.20
2017-09-19T13:12:48.381Z,18.20
2017-09-19T13:15:14.736Z,18.40
2017-09-19T13:17:41.052Z,18.50
2017-09-19T13:20:07.383Z,18.70
2017-09-19T13:22:33.954Z,18.90
2017-09-19T13:25:00.296Z,19.10
2017-09-19T13:27:27.330Z,19.30
2017-09-19T13:29:53.698Z,19.30
2017-09-19T13:35:21.678Z,19.20
2017-09-19T13:37:47.984Z,19.10
2017-09-19T13:40:15.072Z,18.80
2017-09-19T13:42:41.368Z,18.80
2017-09-19T13:45:08.472Z,18.20
2017-09-19T13:47:34.796Z,18.10
2017-09-19T13:50:01.068Z,17.90
2017-09-19T13:52:27.645Z,17.70
2017-09-19T13:54:54.114Z,17.50
2017-09-19T13:57:20.464Z,17.30
2017-09-19T13:59:46.869Z,17.10
2017-09-19T14:02:13.167Z,17.10
2017-09-19T14:04:39.501Z,17.00
2017-09-19T14:07:05.800Z,16.90
2017-09-19T14:09:32.930Z,16.90
2017-09-19T14:11:59.236Z,16.90
2017-09-19T14:14:25.533Z,16.90
2017-09-19T14:16:51.828Z,17.10
2017-09-19T14:19:18.149Z,17.20
2017-09-19T14:21:45.188Z,17.20
2017-09-19T14:24:11.508Z,17.20
2017-09-19T14:26:37.806Z,17.20
2017-09-19T14:29:04.150Z,17.20
2017-09-19T14:31:30.880Z,17.30
2017-09-19T14:33:57.191Z,17.30
2017-09-19T14:36:23.493Z,17.40
2017-09-19T14:38:50.576Z,17.90
2017-09-19T14:41:16.888Z,17.90
2017-09-19T14:43:43.966Z,18.20
2017-09-19T14:46:10.287Z,18.20
2017-09-19T14:48:36.588Z,18.50
2017-09-19T14:51:03.635Z,18.70
2017-09-19T14:53:30.794Z,18.80
2017-09-19T14:55:57.849Z,18.70
2017-09-19T14:58:24.578Z,18.60
2017-09-19T15:00:51.620Z,18.40
2017-09-19T15:03:18.686Z,18.30
2017-09-19T15:05:45.020Z,18.30
2017-09-19T15:08:11.311Z,18.20
2017-09-19T15:10:38.008Z,18.30
2017-09-19T15:13:12.340Z,18.20
2017-09-19T15:15:38.668Z,18.10
2017-09-19T15:18:05.028Z,18.00
2017-09-19T15:20:32.092Z,17.80
2017-09-19T15:22:58.436Z,17.80
2017-09-19T15:25:24.729Z,17.70
2017-09-19T15:27:51.095Z,17.70
2017-09-19T15:30:18.190Z,17.60
2017-09-19T15:32:44.548Z,17.60
2017-09-19T15:35:10.840Z,17.70
2017-09-19T15:37:37.181Z,17.60
2017-09-19T15:40:03.529Z,17.50
2017-09-19T15:42:29.808Z,17.50
2017-09-19T15:44:56.140Z,17.40
2017-09-19T15:47:22.449Z,17.30
2017-09-19T15:49:49.516Z,17.10
2017-09-19T15:52:15.828Z,17.10
2017-09-19T15:54:42.944Z,17.00
2017-09-19T15:57:09.272Z,17.00
2017-09-19T15:59:35.566Z,17.00
2017-09-19T16:02:01.893Z,16.90
2017-09-19T16:04:28.269Z,16.90
2017-09-19T16:06:54.602Z,16.80
2017-09-19T16:09:20.917Z,16.70
2017-09-19T16:11:47.288Z,16.60
2017-09-19T16:14:14.363Z,16.20
2017-09-19T16:16:40.673Z,16.20
2017-09-19T16:19:07.735Z,15.80
2017-09-19T16:21:34.086Z,15.80
2017-09-19T16:24:00.426Z,15.70
2017-09-19T16:26:27.065Z,15.70
2017-09-19T16:28:53.380Z,15.60
2017-09-19T16:31:19.667Z,15.50
2017-09-19T16:33:46.878Z,15.30
2017-09-19T16:36:13.362Z,15.30
2017-09-19T16:38:40.403Z,15.10
2017-09-19T16:41:07.459Z,15.00
2017-09-19T16:43:34.519Z,15.00
2017-09-19T16:46:00.817Z,15.00
2017-09-19T16:48:28.050Z,15.00
2017-09-19T16:50:54.742Z,15.00
2017-09-19T16:53:21.042Z,15.00
2017-09-19T16:55:48.138Z,14.80
2017-09-19T16:58:14.450Z,14.80
2017-09-19T17:00:40.812Z,14.70
2017-09-19T17:03:07.165Z,14.60
2017-09-19T17:05:33.489Z,14.50
2017-09-19T17:07:59.944Z,14.40
2017-09-19T17:10:27.058Z,14.30
2017-09-19T17:12:53.399Z,14.30
2017-09-19T17:15:19.743Z,14.20
2017-09-19T17:17:46.032Z,14.10
2017-09-19T17:20:12.404Z,14.10
2017-09-19T17:22:39.705Z,14.10
2017-09-19T17:25:06.005Z,14.10
2017-09-19T17:27:33.088Z,14.00
2017-09-19T17:29:59.504Z,14.00
2017-09-19T17:32:25.858Z,14.00
2017-09-19T17:34:52.208Z,14.00
2017-09-19T17:37:18.516Z,13.90
2017-09-19T17:39:44.821Z,13.90
2017-09-19T17:42:11.158Z,13.80
2017-09-19T17:44:37.470Z,13.70
2017-09-19T17:47:06.291Z,13.50
2017-09-19T17:49:32.927Z,13.50
2017-09-19T17:52:02.203Z,13.50
2017-09-19T17:54:28.640Z,13.40
2017-09-19T17:56:54.973Z,13.50
2017-09-19T17:59:21.284Z,13.50
2017-09-19T18:01:51.241Z,13.60
2017-09-19T18:04:17.584Z,13.50
2017-09-19T18:06:44.099Z,13.60
2017-09-19T18:09:10.456Z,13.60
2017-09-19T18:11:36.804Z,13.60
2017-09-19T18:14:03.081Z,13.60
2017-09-19T18:16:29.448Z,13.60
2017-09-19T18:18:55.776Z,13.60
2017-09-19T18:21:22.086Z,13.60
2017-09-19T18:23:48.460Z,13.60
2017-09-19T18:26:14.782Z,13.60
2017-09-19T18:28:41.213Z,13.60
2017-09-19T18:31:07.547Z,13.50
2017-09-19T18:33:33.873Z,13.50
2017-09-19T18:36:00.214Z,13.50
2017-09-19T18:38:27.332Z,13.50
2017-09-19T18:40:53.632Z,13.50
2017-09-19T18:43:25.965Z,13.50
2017-09-19T18:45:53.073Z,13.50
2017-09-19T18:48:19.377Z,13.50
2017-09-19T18:50:45.753Z,13.50
2017-09-19T18:53:12.141Z,13.50
2017-09-19T18:55:38.722Z,13.50
2017-09-19T18:58:05.104Z,13.50
2017-09-19T19:00:31.470Z,13.50
2017-09-19T19:03:00.472Z,13.50
2017-09-19T19:05:27.166Z,13.50
2017-09-19T19:07:54.535Z,13.50
2017-09-19T19:10:21.183Z,13.50
2017-09-19T19:12:47.549Z,13.50
2017-09-19T19:15:14.734Z,13.50
2017-09-19T19:17:41.126Z,13.50
2017-09-19T19:20:14.555Z,13.50
2017-09-19T19:22:42.279Z,13.40
2017-09-19T19:25:09.598Z,13.40
2017-09-19T19:27:36.654Z,13.40
2017-09-19T19:30:04.290Z,13.40
2017-09-19T19:32:31.922Z,13.40
2017-09-19T19:34:59.056Z,13.50
2017-09-19T19:37:25.379Z,13.50
2017-09-19T19:39:51.771Z,13.50
2017-09-19T19:42:18.148Z,13.60
2017-09-19T19:44:44.496Z,13.60
2017-09-19T19:47:10.955Z,13.60
2017-09-19T19:49:38.106Z,13.60
2017-09-19T19:52:05.250Z,13.60
2017-09-19T19:54:32.361Z,13.60
2017-09-19T19:56:58.696Z,13.60
2017-09-19T19:59:26.517Z,13.60
2017-09-19T20:01:52.872Z,13.60
2017-09-19T20:04:19.188Z,13.60
2017-09-19T20:06:45.500Z,13.60
2017-09-19T20:09:11.949Z,13.50
2017-09-19T20:11:38.372Z,13.50
2017-09-19T20:14:04.684Z,13.50
2017-09-19T20:16:31.730Z,13.60
2017-09-19T20:18:58.868Z,13.60
2017-09-19T20:21:25.952Z,13.50
2017-09-19T20:23:52.269Z,13.50
2017-09-19T20:26:18.572Z,13.50
2017-09-19T20:28:44.892Z,13.50
2017-09-19T20:31:11.235Z,13.40
2017-09-19T20:33:38.292Z,13.40
2017-09-19T20:36:05.377Z,13.30
2017-09-19T20:38:31.700Z,13.30
2017-09-19T20:40:58.005Z,13.30
2017-09-19T20:43:25.037Z,13.20
2017-09-19T20:45:52.128Z,13.20
2017-09-19T20:48:18.457Z,13.20
2017-09-19T20:50:44.763Z,13.20
2017-09-19T20:53:11.796Z,13.20
2017-09-19T20:55:38.918Z,13.20
2017-09-19T20:58:05.255Z,13.20
2017-09-19T21:00:31.590Z,13.20
2017-09-19T21:02:57.782Z,13.20
2017-09-19T21:05:30.158Z,13.20
2017-09-19T21:08:02.551Z,13.10
2017-09-19T21:10:35.081Z,13.10
2017-09-19T21:13:07.504Z,13.10
2017-09-19T21:15:39.897Z,13.10
2017-09-19T21:18:12.936Z,13.10
2017-09-19T21:20:39.256Z,13.00
2017-09-19T21:23:05.563Z,13.00
2017-09-19T21:25:32.646Z,13.00
2017-09-19T21:27:58.937Z,13.00
2017-09-19T21:30:25.249Z,13.00
2017-09-19T21:32:52.313Z,13.00
2017-09-19T21:35:19.373Z,13.00
2017-09-19T21:37:45.689Z,13.00
2017-09-19T21:40:12.814Z,13.00
2017-09-19T21:42:39.103Z,13.00
2017-09-19T21:45:05.720Z,13.00
2017-09-19T21:47:32.016Z,13.00
2017-09-19T21:49:59.055Z,13.00
2017-09-19T21:52:26.927Z,13.00
2017-09-19T21:54:53.251Z,13.00
2017-09-19T21:57:19.581Z,13.00
2017-09-19T21:59:47.369Z,12.90
2017-09-19T22:02:14.420Z,12.90
2017-09-19T22:04:41.478Z,12.90
2017-09-19T22:07:07.800Z,12.90
2017-09-19T22:09:34.862Z,12.90
2017-09-19T22:12:01.176Z,12.90
2017-09-19T22:14:28.237Z,12.90
2017-09-19T22:16:54.553Z,12.90
2017-09-19T22:19:21.612Z,12.90
2017-09-19T22:21:47.892Z,12.90
2017-09-19T22:24:14.364Z,12.90
2017-09-19T22:26:41.424Z,12.90
2017-09-19T22:29:07.704Z,12.90
2017-09-19T22:31:34.041Z,12.80
2017-09-19T22:34:00.380Z,12.80
2017-09-19T22:36:26.693Z,12.80
2017-09-19T22:38:52.983Z,12.70
2017-09-19T22:41:19.348Z,12.70
2017-09-19T22:43:45.675Z,12.60
2017-09-19T22:46:11.987Z,12.60
2017-09-19T22:48:38.293Z,12.50
2017-09-19T22:51:04.644Z,12.50
2017-09-19T22:53:30.942Z,12.50
2017-09-19T22:55:57.970Z,12.50
2017-09-19T22:58:25.023Z,12.50
2017-09-19T23:00:52.340Z,12.50
2017-09-19T23:03:18.673Z,12.40
2017-09-19T23:05:44.959Z,12.40
2017-09-19T23:08:11.266Z,12.40
2017-09-19T23:10:38.324Z,12.30
2017-09-19T23:13:05.346Z,12.30
2017-09-19T23:15:31.674Z,12.30
2017-09-19T23:17:57.959Z,12.30
2017-09-19T23:20:24.291Z,12.20
2017-09-19T23:22:50.616Z,12.10
2017-09-19T23:25:16.941Z,11.90
2017-09-19T23:27:43.237Z,11.80
2017-09-19T23:30:10.347Z,11.60
2017-09-19T23:32:36.659Z,11.60
2017-09-19T23:35:02.922Z,11.50
2017-09-19T23:37:29.224Z,11.40
2017-09-19T23:39:55.529Z,11.30
2017-09-19T23:42:21.885Z,11.20
2017-09-19T23:44:48.209Z,11.10
2017-09-19T23:47:14.560Z,11.00
2017-09-19T23:49:40.949Z,10.90
2017-09-19T23:52:07.244Z,10.90
2017-09-19T23:54:33.544Z,10.70
2017-09-19T23:56:59.865Z,10.60
2017-09-19T23:59:26.235Z,10.40
